sensor_id;sensor_type;location;lat;lon;timestamp;pressure;altitude;pressure_sealevel;temperature;humidity
59168;BME280;70412;55.048;73.268;2023-08-07T00:02:59;99527.13;;;11.57;100.00
59168;BME280;70412;55.048;73.268;2023-08-07T00:06:02;99519.00;;;11.60;100.00
59168;BME280;70412;55.048;73.268;2023-08-07T00:09:04;99511.97;;;11.71;100.00
59168;BME280;70412;55.048;73.268;2023-08-07T00:12:06;99512.56;;;11.84;100.00
59168;BME280;70412;55.048;73.268;2023-08-07T00:15:11;99513.97;;;11.98;100.00
59168;BME280;70412;55.048;73.268;2023-08-07T00:18:13;99518.44;;;12.16;100.00
59168;BME280;70412;55.048;73.268;2023-08-07T00:21:16;99525.66;;;12.34;100.00
59168;BME280;70412;55.048;73.268;2023-08-07T00:24:18;99517.91;;;12.42;100.00
59168;BME280;70412;55.048;73.268;2023-08-07T00:27:21;99499.78;;;12.39;99.00
59168;BME280;70412;55.048;73.268;2023-08-07T00:30:24;99520.41;;;12.63;99.17
59168;BME280;70412;55.048;73.268;2023-08-07T00:33:26;99541.44;;;12.72;98.34
59168;BME280;70412;55.048;73.268;2023-08-07T00:36:29;99537.53;;;12.96;97.11
59168;BME280;70412;55.048;73.268;2023-08-07T00:39:33;99533.88;;;13.16;95.58
59168;BME280;70412;55.048;73.268;2023-08-07T00:42:36;99541.59;;;13.27;94.94
59168;BME280;70412;55.048;73.268;2023-08-07T00:45:43;99538.28;;;13.25;94.21
59168;BME280;70412;55.048;73.268;2023-08-07T00:48:46;99541.13;;;13.51;93.76
59168;BME280;70412;55.048;73.268;2023-08-07T00:51:52;99541.66;;;13.55;93.40
59168;BME280;70412;55.048;73.268;2023-08-07T00:54:55;99544.41;;;13.90;92.02
59168;BME280;70412;55.048;73.268;2023-08-07T00:57:58;99532.34;;;14.15;91.20
59168;BME280;70412;55.048;73.268;2023-08-07T01:01:02;99545.53;;;14.33;88.98
59168;BME280;70412;55.048;73.268;2023-08-07T01:04:05;99549.91;;;14.78;87.23
59168;BME280;70412;55.048;73.268;2023-08-07T01:07:07;99541.28;;;14.40;88.07
59168;BME280;70412;55.048;73.268;2023-08-07T01:10:10;99524.03;;;14.81;86.84
59168;BME280;70412;55.048;73.268;2023-08-07T01:13:35;99544.94;;;14.75;85.27
59168;BME280;70412;55.048;73.268;2023-08-07T01:16:59;99537.16;;;14.73;85.04
59168;BME280;70412;55.048;73.268;2023-08-07T01:20:03;99539.06;;;15.33;83.20
59168;BME280;70412;55.048;73.268;2023-08-07T01:23:06;99534.47;;;15.43;82.52
59168;BME280;70412;55.048;73.268;2023-08-07T01:26:08;99542.47;;;15.25;82.00
59168;BME280;70412;55.048;73.268;2023-08-07T01:29:21;99538.31;;;15.48;80.88
59168;BME280;70412;55.048;73.268;2023-08-07T01:35:54;99547.59;;;15.95;79.14
59168;BME280;70412;55.048;73.268;2023-08-07T01:38:59;99546.63;;;15.96;77.97
59168;BME280;70412;55.048;73.268;2023-08-07T01:42:02;99534.50;;;16.43;76.50
59168;BME280;70412;55.048;73.268;2023-08-07T01:45:07;99548.75;;;16.67;76.65
59168;BME280;70412;55.048;73.268;2023-08-07T01:48:10;99543.72;;;17.37;73.20
59168;BME280;70412;55.048;73.268;2023-08-07T01:51:14;99536.66;;;16.97;73.57
59168;BME280;70412;55.048;73.268;2023-08-07T01:54:17;99530.53;;;16.96;74.19
59168;BME280;70412;55.048;73.268;2023-08-07T01:57:20;99521.75;;;16.96;73.15
59168;BME280;70412;55.048;73.268;2023-08-07T02:00:23;99526.22;;;17.12;73.21
59168;BME280;70412;55.048;73.268;2023-08-07T02:03:26;99532.75;;;17.96;71.57
59168;BME280;70412;55.048;73.268;2023-08-07T02:06:29;99521.22;;;18.11;69.85
59168;BME280;70412;55.048;73.268;2023-08-07T02:09:31;99522.44;;;17.70;71.13
59168;BME280;70412;55.048;73.268;2023-08-07T02:12:34;99522.66;;;17.91;69.92
59168;BME280;70412;55.048;73.268;2023-08-07T02:15:37;99527.59;;;18.48;68.84
59168;BME280;70412;55.048;73.268;2023-08-07T02:18:45;99514.56;;;18.15;69.67
59168;BME280;70412;55.048;73.268;2023-08-07T02:21:48;99523.13;;;18.26;68.40
59168;BME280;70412;55.048;73.268;2023-08-07T02:24:51;99520.00;;;18.45;67.98
59168;BME280;70412;55.048;73.268;2023-08-07T02:27:53;99515.56;;;18.83;66.47
59168;BME280;70412;55.048;73.268;2023-08-07T02:30:56;99522.81;;;18.89;67.05
59168;BME280;70412;55.048;73.268;2023-08-07T02:33:58;99520.16;;;19.41;64.52
59168;BME280;70412;55.048;73.268;2023-08-07T02:37:01;99518.38;;;19.19;64.39
59168;BME280;70412;55.048;73.268;2023-08-07T02:40:04;99517.13;;;19.45;63.73
59168;BME280;70412;55.048;73.268;2023-08-07T02:43:07;99511.22;;;19.20;64.21
59168;BME280;70412;55.048;73.268;2023-08-07T02:46:11;99524.88;;;19.02;64.90
59168;BME280;70412;55.048;73.268;2023-08-07T02:49:15;99507.84;;;19.55;62.71
59168;BME280;70412;55.048;73.268;2023-08-07T02:52:18;99509.25;;;19.51;63.74
59168;BME280;70412;55.048;73.268;2023-08-07T02:55:21;99512.84;;;20.16;61.01
59168;BME280;70412;55.048;73.268;2023-08-07T02:58:23;99511.56;;;19.90;61.25
59168;BME280;70412;55.048;73.268;2023-08-07T03:01:26;99506.06;;;20.28;59.38
59168;BME280;70412;55.048;73.268;2023-08-07T03:04:29;99492.31;;;20.10;58.15
59168;BME280;70412;55.048;73.268;2023-08-07T03:07:32;99491.84;;;20.42;57.28
59168;BME280;70412;55.048;73.268;2023-08-07T03:10:34;99506.19;;;20.05;57.26
59168;BME280;70412;55.048;73.268;2023-08-07T03:13:37;99492.53;;;20.29;57.45
59168;BME280;70412;55.048;73.268;2023-08-07T03:16:40;99492.84;;;20.20;56.03
59168;BME280;70412;55.048;73.268;2023-08-07T03:19:43;99477.22;;;20.53;56.12
59168;BME280;70412;55.048;73.268;2023-08-07T03:22:47;99499.00;;;21.12;53.51
59168;BME280;70412;55.048;73.268;2023-08-07T03:25:51;99477.59;;;20.28;54.21
59168;BME280;70412;55.048;73.268;2023-08-07T03:29:03;99493.91;;;21.17;53.23
59168;BME280;70412;55.048;73.268;2023-08-07T03:32:06;99489.22;;;20.98;52.07
59168;BME280;70412;55.048;73.268;2023-08-07T03:35:11;99488.00;;;21.29;52.52
59168;BME280;70412;55.048;73.268;2023-08-07T03:38:14;99485.69;;;20.91;52.15
59168;BME280;70412;55.048;73.268;2023-08-07T03:41:16;99481.03;;;21.28;52.34
59168;BME280;70412;55.048;73.268;2023-08-07T03:44:19;99483.31;;;21.78;49.87
59168;BME280;70412;55.048;73.268;2023-08-07T03:47:22;99484.06;;;21.66;50.15
59168;BME280;70412;55.048;73.268;2023-08-07T03:50:25;99484.91;;;21.66;50.31
59168;BME280;70412;55.048;73.268;2023-08-07T03:53:28;99484.13;;;21.79;48.75
59168;BME280;70412;55.048;73.268;2023-08-07T03:56:30;99480.03;;;21.76;51.04
59168;BME280;70412;55.048;73.268;2023-08-07T03:59:39;99484.28;;;21.64;50.05
59168;BME280;70412;55.048;73.268;2023-08-07T04:02:41;99486.75;;;22.33;47.99
59168;BME280;70412;55.048;73.268;2023-08-07T04:05:46;99482.88;;;22.42;48.27
59168;BME280;70412;55.048;73.268;2023-08-07T04:08:49;99489.25;;;22.55;46.78
59168;BME280;70412;55.048;73.268;2023-08-07T04:11:51;99494.94;;;22.12;48.28
59168;BME280;70412;55.048;73.268;2023-08-07T04:14:54;99484.28;;;22.25;47.97
59168;BME280;70412;55.048;73.268;2023-08-07T04:17:56;99483.44;;;22.05;48.60
59168;BME280;70412;55.048;73.268;2023-08-07T04:21:00;99467.81;;;22.15;47.49
59168;BME280;70412;55.048;73.268;2023-08-07T04:24:03;99476.94;;;22.67;46.77
59168;BME280;70412;55.048;73.268;2023-08-07T04:27:12;99467.44;;;22.45;45.64
59168;BME280;70412;55.048;73.268;2023-08-07T04:30:14;99476.91;;;23.00;44.55
59168;BME280;70412;55.048;73.268;2023-08-07T04:33:17;99474.88;;;22.76;46.98
59168;BME280;70412;55.048;73.268;2023-08-07T04:36:20;99473.00;;;23.09;46.27
59168;BME280;70412;55.048;73.268;2023-08-07T04:39:23;99473.66;;;22.78;45.17
59168;BME280;70412;55.048;73.268;2023-08-07T04:42:26;99479.19;;;22.96;43.77
59168;BME280;70412;55.048;73.268;2023-08-07T04:45:29;99474.06;;;22.62;44.10
59168;BME280;70412;55.048;73.268;2023-08-07T04:48:31;99481.03;;;23.03;44.36
59168;BME280;70412;55.048;73.268;2023-08-07T04:51:36;99470.78;;;22.73;44.84
59168;BME280;70412;55.048;73.268;2023-08-07T04:54:38;99462.88;;;23.38;43.21
59168;BME280;70412;55.048;73.268;2023-08-07T04:57:41;99475.44;;;23.30;44.07
59168;BME280;70412;55.048;73.268;2023-08-07T05:00:43;99474.72;;;23.62;44.42
59168;BME280;70412;55.048;73.268;2023-08-07T05:03:46;99464.53;;;23.32;43.36
59168;BME280;70412;55.048;73.268;2023-08-07T05:06:49;99472.34;;;23.14;43.35
59168;BME280;70412;55.048;73.268;2023-08-07T05:09:52;99471.16;;;22.96;43.64
59168;BME280;70412;55.048;73.268;2023-08-07T05:12:55;99479.34;;;23.86;41.32
59168;BME280;70412;55.048;73.268;2023-08-07T05:15:58;99464.59;;;22.92;43.84
59168;BME280;70412;55.048;73.268;2023-08-07T05:19:00;99467.66;;;22.56;44.91
59168;BME280;70412;55.048;73.268;2023-08-07T05:22:03;99464.94;;;24.18;42.54
59168;BME280;70412;55.048;73.268;2023-08-07T05:25:06;99453.50;;;23.98;42.39
59168;BME280;70412;55.048;73.268;2023-08-07T05:28:08;99450.50;;;23.88;40.63
59168;BME280;70412;55.048;73.268;2023-08-07T05:31:11;99450.56;;;23.75;42.81
59168;BME280;70412;55.048;73.268;2023-08-07T05:34:13;99441.66;;;23.43;42.44
59168;BME280;70412;55.048;73.268;2023-08-07T05:37:16;99445.63;;;23.00;43.25
59168;BME280;70412;55.048;73.268;2023-08-07T05:40:18;99443.94;;;23.39;43.64
59168;BME280;70412;55.048;73.268;2023-08-07T05:43:21;99437.00;;;24.39;40.94
59168;BME280;70412;55.048;73.268;2023-08-07T05:46:23;99417.44;;;24.57;42.32
59168;BME280;70412;55.048;73.268;2023-08-07T05:49:25;99433.31;;;24.02;41.59
59168;BME280;70412;55.048;73.268;2023-08-07T05:52:28;99434.47;;;23.23;44.23
59168;BME280;70412;55.048;73.268;2023-08-07T05:55:31;99427.72;;;24.10;41.16
59168;BME280;70412;55.048;73.268;2023-08-07T05:58:35;99434.44;;;24.76;41.13
59168;BME280;70412;55.048;73.268;2023-08-07T06:01:37;99404.59;;;24.41;40.22
59168;BME280;70412;55.048;73.268;2023-08-07T06:04:40;99423.03;;;24.99;39.40
59168;BME280;70412;55.048;73.268;2023-08-07T06:07:43;99425.97;;;24.23;41.49
59168;BME280;70412;55.048;73.268;2023-08-07T06:10:45;99419.03;;;24.40;40.65
59168;BME280;70412;55.048;73.268;2023-08-07T06:13:49;99375.19;;;24.09;42.34
59168;BME280;70412;55.048;73.268;2023-08-07T06:16:52;99412.94;;;25.97;39.86
59168;BME280;70412;55.048;73.268;2023-08-07T06:19:54;99419.00;;;24.22;40.95
59168;BME280;70412;55.048;73.268;2023-08-07T06:22:57;99420.31;;;23.99;42.11
59168;BME280;70412;55.048;73.268;2023-08-07T06:25:59;99406.34;;;25.52;38.00
59168;BME280;70412;55.048;73.268;2023-08-07T06:29:06;99419.16;;;24.76;38.90
59168;BME280;70412;55.048;73.268;2023-08-07T06:32:08;99407.31;;;26.29;37.62
59168;BME280;70412;55.048;73.268;2023-08-07T06:35:12;99403.03;;;26.63;37.68
59168;BME280;70412;55.048;73.268;2023-08-07T06:38:15;99406.50;;;25.20;37.89
59168;BME280;70412;55.048;73.268;2023-08-07T06:41:17;99415.16;;;25.59;39.76
59168;BME280;70412;55.048;73.268;2023-08-07T06:44:24;99407.84;;;25.48;38.90
59168;BME280;70412;55.048;73.268;2023-08-07T06:47:26;99404.91;;;24.51;40.29
59168;BME280;70412;55.048;73.268;2023-08-07T06:50:29;99402.00;;;25.51;37.70
59168;BME280;70412;55.048;73.268;2023-08-07T06:53:31;99388.97;;;24.38;41.02
59168;BME280;70412;55.048;73.268;2023-08-07T06:56:34;99389.34;;;25.88;38.11
59168;BME280;70412;55.048;73.268;2023-08-07T06:59:37;99402.34;;;26.03;38.45
59168;BME280;70412;55.048;73.268;2023-08-07T07:02:40;99411.13;;;26.10;38.92
59168;BME280;70412;55.048;73.268;2023-08-07T07:05:43;99394.88;;;25.08;40.37
59168;BME280;70412;55.048;73.268;2023-08-07T07:08:46;99395.16;;;25.55;38.58
59168;BME280;70412;55.048;73.268;2023-08-07T07:11:48;99404.53;;;25.64;37.68
59168;BME280;70412;55.048;73.268;2023-08-07T07:14:51;99393.06;;;26.52;37.44
59168;BME280;70412;55.048;73.268;2023-08-07T07:17:53;99402.56;;;25.23;37.58
59168;BME280;70412;55.048;73.268;2023-08-07T07:20:59;99384.56;;;25.60;37.26
59168;BME280;70412;55.048;73.268;2023-08-07T07:24:03;99383.09;;;25.87;36.94
59168;BME280;70412;55.048;73.268;2023-08-07T07:27:06;99393.06;;;25.98;39.03
59168;BME280;70412;55.048;73.268;2023-08-07T07:30:08;99403.34;;;24.43;40.49
59168;BME280;70412;55.048;73.268;2023-08-07T07:33:11;99417.44;;;23.69;38.51
59168;BME280;70412;55.048;73.268;2023-08-07T07:36:18;99404.69;;;23.96;38.63
59168;BME280;70412;55.048;73.268;2023-08-07T07:39:23;99413.53;;;23.07;41.75
59168;BME280;70412;55.048;73.268;2023-08-07T07:42:26;99414.34;;;23.21;41.80
59168;BME280;70412;55.048;73.268;2023-08-07T07:45:28;99385.22;;;24.14;40.18
59168;BME280;70412;55.048;73.268;2023-08-07T07:48:31;99394.31;;;25.84;36.81
59168;BME280;70412;55.048;73.268;2023-08-07T07:51:33;99399.28;;;26.41;36.26
59168;BME280;70412;55.048;73.268;2023-08-07T07:54:37;99388.47;;;25.09;36.26
59168;BME280;70412;55.048;73.268;2023-08-07T07:57:42;99392.91;;;25.33;37.71
59168;BME280;70412;55.048;73.268;2023-08-07T08:00:45;99391.88;;;25.16;37.30
59168;BME280;70412;55.048;73.268;2023-08-07T08:03:47;99392.34;;;25.13;36.88
59168;BME280;70412;55.048;73.268;2023-08-07T08:06:50;99387.50;;;23.79;39.76
59168;BME280;70412;55.048;73.268;2023-08-07T08:09:53;99384.25;;;24.08;40.07
59168;BME280;70412;55.048;73.268;2023-08-07T08:12:55;99377.16;;;24.64;39.13
59168;BME280;70412;55.048;73.268;2023-08-07T08:15:58;99379.88;;;25.55;35.29
59168;BME280;70412;55.048;73.268;2023-08-07T08:19:01;99379.06;;;24.13;36.94
59168;BME280;70412;55.048;73.268;2023-08-07T08:22:05;99360.88;;;25.20;37.48
59168;BME280;70412;55.048;73.268;2023-08-07T08:25:07;99364.91;;;25.29;38.12
59168;BME280;70412;55.048;73.268;2023-08-07T08:28:12;99359.22;;;25.67;36.69
59168;BME280;70412;55.048;73.268;2023-08-07T08:31:14;99378.56;;;24.48;37.75
59168;BME280;70412;55.048;73.268;2023-08-07T08:34:17;99366.19;;;24.72;37.53
59168;BME280;70412;55.048;73.268;2023-08-07T08:37:19;99368.16;;;24.58;37.29
59168;BME280;70412;55.048;73.268;2023-08-07T08:40:23;99363.66;;;23.39;37.67
59168;BME280;70412;55.048;73.268;2023-08-07T08:43:26;99355.72;;;23.57;38.11
59168;BME280;70412;55.048;73.268;2023-08-07T08:46:31;99366.75;;;24.31;38.23
59168;BME280;70412;55.048;73.268;2023-08-07T08:49:36;99361.66;;;24.47;36.98
59168;BME280;70412;55.048;73.268;2023-08-07T08:52:42;99357.16;;;24.85;34.81
59168;BME280;70412;55.048;73.268;2023-08-07T08:55:46;99326.84;;;25.92;35.73
59168;BME280;70412;55.048;73.268;2023-08-07T08:58:53;99333.44;;;26.20;33.77
59168;BME280;70412;55.048;73.268;2023-08-07T09:01:55;99328.88;;;25.37;34.73
59168;BME280;70412;55.048;73.268;2023-08-07T09:04:58;99323.22;;;25.98;35.19
59168;BME280;70412;55.048;73.268;2023-08-07T09:08:01;99340.47;;;25.79;35.46
59168;BME280;70412;55.048;73.268;2023-08-07T09:11:05;99340.06;;;25.34;36.29
59168;BME280;70412;55.048;73.268;2023-08-07T09:14:09;99339.69;;;25.90;35.30
59168;BME280;70412;55.048;73.268;2023-08-07T09:17:15;99341.59;;;24.93;37.34
59168;BME280;70412;55.048;73.268;2023-08-07T09:20:18;99323.63;;;24.57;37.57
59168;BME280;70412;55.048;73.268;2023-08-07T09:23:21;99333.31;;;24.33;39.52
59168;BME280;70412;55.048;73.268;2023-08-07T09:26:24;99331.44;;;24.15;39.77
59168;BME280;70412;55.048;73.268;2023-08-07T09:29:29;99325.50;;;24.32;38.45
59168;BME280;70412;55.048;73.268;2023-08-07T09:32:32;99287.44;;;23.98;39.64
59168;BME280;70412;55.048;73.268;2023-08-07T09:35:34;99318.84;;;23.91;39.02
59168;BME280;70412;55.048;73.268;2023-08-07T09:38:37;99329.72;;;24.64;36.54
59168;BME280;70412;55.048;73.268;2023-08-07T09:41:40;99329.50;;;25.39;36.12
59168;BME280;70412;55.048;73.268;2023-08-07T09:44:43;99311.56;;;25.33;33.25
59168;BME280;70412;55.048;73.268;2023-08-07T09:48:22;99321.41;;;25.69;35.05
59168;BME280;70412;55.048;73.268;2023-08-07T09:51:26;99323.09;;;25.93;34.64
59168;BME280;70412;55.048;73.268;2023-08-07T09:54:31;99311.50;;;26.23;33.55
59168;BME280;70412;55.048;73.268;2023-08-07T09:57:34;99324.25;;;25.44;35.85
59168;BME280;70412;55.048;73.268;2023-08-07T10:00:40;99322.81;;;25.60;36.06
59168;BME280;70412;55.048;73.268;2023-08-07T10:03:43;99324.72;;;24.49;37.28
59168;BME280;70412;55.048;73.268;2023-08-07T10:06:46;99323.78;;;24.81;37.97
59168;BME280;70412;55.048;73.268;2023-08-07T10:09:49;99324.00;;;24.17;39.16
59168;BME280;70412;55.048;73.268;2023-08-07T10:12:52;99300.44;;;24.01;39.89
59168;BME280;70412;55.048;73.268;2023-08-07T10:15:58;99320.03;;;23.95;39.81
59168;BME280;70412;55.048;73.268;2023-08-07T10:19:00;99320.50;;;23.60;41.76
59168;BME280;70412;55.048;73.268;2023-08-07T10:22:03;99319.53;;;23.48;41.31
59168;BME280;70412;55.048;73.268;2023-08-07T10:25:06;99323.44;;;23.08;41.51
59168;BME280;70412;55.048;73.268;2023-08-07T10:28:13;99324.69;;;22.98;42.02
59168;BME280;70412;55.048;73.268;2023-08-07T10:31:18;99306.22;;;22.90;41.87
59168;BME280;70412;55.048;73.268;2023-08-07T10:34:22;99310.53;;;24.86;38.18
59168;BME280;70412;55.048;73.268;2023-08-07T10:37:39;99302.44;;;25.41;37.19
59168;BME280;70412;55.048;73.268;2023-08-07T10:41:02;99309.19;;;25.85;35.42
59168;BME280;70412;55.048;73.268;2023-08-07T10:44:05;99295.50;;;25.86;34.67
59168;BME280;70412;55.048;73.268;2023-08-07T10:47:10;99299.75;;;25.52;34.72
59168;BME280;70412;55.048;73.268;2023-08-07T10:50:12;99299.22;;;25.62;37.33
59168;BME280;70412;55.048;73.268;2023-08-07T10:53:32;99303.56;;;25.15;35.92
59168;BME280;70412;55.048;73.268;2023-08-07T10:56:35;99313.59;;;24.28;37.72
59168;BME280;70412;55.048;73.268;2023-08-07T10:59:50;99280.97;;;23.24;38.45
59168;BME280;70412;55.048;73.268;2023-08-07T11:02:53;99300.69;;;23.30;39.27
59168;BME280;70412;55.048;73.268;2023-08-07T11:05:57;99297.44;;;23.21;40.03
59168;BME280;70412;55.048;73.268;2023-08-07T11:09:03;99292.84;;;23.35;40.49
59168;BME280;70412;55.048;73.268;2023-08-07T11:12:07;99305.66;;;25.13;37.05
59168;BME280;70412;55.048;73.268;2023-08-07T11:15:14;99297.00;;;25.71;35.52
59168;BME280;70412;55.048;73.268;2023-08-07T11:18:17;99299.09;;;26.10;35.00
59168;BME280;70412;55.048;73.268;2023-08-07T11:21:21;99289.28;;;25.32;36.14
59168;BME280;70412;55.048;73.268;2023-08-07T11:24:23;99299.84;;;25.76;35.88
59168;BME280;70412;55.048;73.268;2023-08-07T11:27:30;99298.13;;;25.51;36.01
59168;BME280;70412;55.048;73.268;2023-08-07T11:30:34;99296.75;;;23.71;39.44
59168;BME280;70412;55.048;73.268;2023-08-07T11:33:40;99304.78;;;23.39;39.42
59168;BME280;70412;55.048;73.268;2023-08-07T11:36:46;99277.81;;;23.34;40.28
59168;BME280;70412;55.048;73.268;2023-08-07T11:40:02;99297.31;;;23.48;40.69
59168;BME280;70412;55.048;73.268;2023-08-07T11:43:24;99290.13;;;28.11;32.81
59168;BME280;70412;55.048;73.268;2023-08-07T11:46:29;99281.22;;;27.76;31.81
59168;BME280;70412;55.048;73.268;2023-08-07T11:49:32;99278.91;;;27.68;30.86
59168;BME280;70412;55.048;73.268;2023-08-07T11:52:34;99277.50;;;27.66;31.38
59168;BME280;70412;55.048;73.268;2023-08-07T11:55:36;99280.84;;;26.99;32.65
59168;BME280;70412;55.048;73.268;2023-08-07T11:58:44;99282.72;;;27.39;30.95
59168;BME280;70412;55.048;73.268;2023-08-07T12:01:50;99279.44;;;27.08;31.50
59168;BME280;70412;55.048;73.268;2023-08-07T12:04:57;99261.84;;;28.13;30.82
59168;BME280;70412;55.048;73.268;2023-08-07T12:08:00;99261.69;;;28.03;30.67
59168;BME280;70412;55.048;73.268;2023-08-07T12:11:13;99285.25;;;26.77;32.19
59168;BME280;70412;55.048;73.268;2023-08-07T12:14:16;99271.25;;;27.60;32.17
59168;BME280;70412;55.048;73.268;2023-08-07T12:17:20;99261.28;;;27.77;32.75
59168;BME280;70412;55.048;73.268;2023-08-07T12:20:23;99273.69;;;26.65;34.44
59168;BME280;70412;55.048;73.268;2023-08-07T12:23:27;99260.88;;;27.24;33.14
59168;BME280;70412;55.048;73.268;2023-08-07T12:26:29;99267.50;;;26.52;34.62
59168;BME280;70412;55.048;73.268;2023-08-07T12:29:31;99270.53;;;26.68;33.57
59168;BME280;70412;55.048;73.268;2023-08-07T12:32:34;99275.03;;;26.27;33.81
59168;BME280;70412;55.048;73.268;2023-08-07T12:35:40;99257.06;;;26.79;34.22
59168;BME280;70412;55.048;73.268;2023-08-07T12:38:43;99270.09;;;26.47;34.61
59168;BME280;70412;55.048;73.268;2023-08-07T12:41:46;99262.16;;;26.29;34.55
59168;BME280;70412;55.048;73.268;2023-08-07T12:44:50;99267.38;;;26.47;34.55
59168;BME280;70412;55.048;73.268;2023-08-07T12:47:52;99274.44;;;26.13;34.80
59168;BME280;70412;55.048;73.268;2023-08-07T12:50:55;99267.72;;;26.63;34.33
59168;BME280;70412;55.048;73.268;2023-08-07T12:53:57;99262.56;;;26.61;34.76
59168;BME280;70412;55.048;73.268;2023-08-07T12:56:59;99266.41;;;25.60;36.51
59168;BME280;70412;55.048;73.268;2023-08-07T13:00:02;99262.44;;;25.62;38.77
59168;BME280;70412;55.048;73.268;2023-08-07T13:03:07;99266.44;;;25.83;35.99
59168;BME280;70412;55.048;73.268;2023-08-07T13:06:09;99258.53;;;26.12;35.92
59168;BME280;70412;55.048;73.268;2023-08-07T13:09:13;99265.03;;;25.81;35.22
59168;BME280;70412;55.048;73.268;2023-08-07T13:12:16;99272.69;;;25.24;36.55
59168;BME280;70412;55.048;73.268;2023-08-07T13:15:19;99274.44;;;25.00;37.02
59168;BME280;70412;55.048;73.268;2023-08-07T13:18:22;99270.69;;;25.19;37.30
59168;BME280;70412;55.048;73.268;2023-08-07T13:21:25;99286.38;;;24.67;37.96
59168;BME280;70412;55.048;73.268;2023-08-07T13:24:27;99282.47;;;25.48;35.53
59168;BME280;70412;55.048;73.268;2023-08-07T13:27:33;99284.81;;;24.60;38.21
59168;BME280;70412;55.048;73.268;2023-08-07T13:30:36;99284.78;;;23.73;39.99
59168;BME280;70412;55.048;73.268;2023-08-07T13:33:38;99287.00;;;24.88;38.23
59168;BME280;70412;55.048;73.268;2023-08-07T13:36:41;99290.19;;;22.90;39.42
59168;BME280;70412;55.048;73.268;2023-08-07T13:39:45;99298.72;;;23.12;40.31
59168;BME280;70412;55.048;73.268;2023-08-07T13:42:51;99297.75;;;23.45;39.68
59168;BME280;70412;55.048;73.268;2023-08-07T13:45:55;99285.06;;;23.90;39.29
59168;BME280;70412;55.048;73.268;2023-08-07T13:48:57;99287.63;;;23.78;39.11
59168;BME280;70412;55.048;73.268;2023-08-07T13:52:00;99296.38;;;24.17;38.75
59168;BME280;70412;55.048;73.268;2023-08-07T13:55:03;99296.94;;;24.26;37.87
59168;BME280;70412;55.048;73.268;2023-08-07T13:58:06;99306.50;;;23.90;38.87
59168;BME280;70412;55.048;73.268;2023-08-07T14:01:09;99306.00;;;23.68;39.09
59168;BME280;70412;55.048;73.268;2023-08-07T14:04:13;99276.09;;;23.78;38.87
59168;BME280;70412;55.048;73.268;2023-08-07T14:07:17;99307.94;;;23.16;40.59
59168;BME280;70412;55.048;73.268;2023-08-07T14:10:19;99319.09;;;23.51;40.17
59168;BME280;70412;55.048;73.268;2023-08-07T14:13:22;99323.09;;;22.84;42.31
59168;BME280;70412;55.048;73.268;2023-08-07T14:16:25;99298.69;;;21.42;46.02
59168;BME280;70412;55.048;73.268;2023-08-07T14:19:27;99319.19;;;21.35;46.19
59168;BME280;70412;55.048;73.268;2023-08-07T14:22:30;99304.59;;;21.17;46.81
59168;BME280;70412;55.048;73.268;2023-08-07T14:25:33;99318.84;;;21.03;48.06
59168;BME280;70412;55.048;73.268;2023-08-07T14:28:39;99330.19;;;20.71;48.64
59168;BME280;70412;55.048;73.268;2023-08-07T14:31:42;99318.59;;;20.50;49.28
59168;BME280;70412;55.048;73.268;2023-08-07T14:34:44;99321.94;;;20.66;48.91
59168;BME280;70412;55.048;73.268;2023-08-07T14:37:49;99326.59;;;20.50;50.53
59168;BME280;70412;55.048;73.268;2023-08-07T14:40:52;99323.16;;;20.07;50.89
59168;BME280;70412;55.048;73.268;2023-08-07T14:43:54;99315.09;;;19.51;54.28
59168;BME280;70412;55.048;73.268;2023-08-07T14:46:57;99333.91;;;18.99;57.26
59168;BME280;70412;55.048;73.268;2023-08-07T14:50:00;99326.66;;;18.78;58.51
59168;BME280;70412;55.048;73.268;2023-08-07T14:53:02;99340.56;;;18.50;61.05
59168;BME280;70412;55.048;73.268;2023-08-07T14:56:04;99340.63;;;18.42;60.20
59168;BME280;70412;55.048;73.268;2023-08-07T14:59:10;99356.69;;;18.49;61.41
59168;BME280;70412;55.048;73.268;2023-08-07T15:02:13;99352.44;;;18.40;61.00
59168;BME280;70412;55.048;73.268;2023-08-07T15:05:16;99361.78;;;17.75;63.40
59168;BME280;70412;55.048;73.268;2023-08-07T15:08:18;99351.59;;;17.56;66.48
59168;BME280;70412;55.048;73.268;2023-08-07T15:11:20;99360.38;;;17.33;66.80
59168;BME280;70412;55.048;73.268;2023-08-07T15:14:23;99363.91;;;17.18;67.13
59168;BME280;70412;55.048;73.268;2023-08-07T15:17:25;99367.69;;;16.84;69.88
59168;BME280;70412;55.048;73.268;2023-08-07T15:20:27;99360.81;;;16.51;72.25
59168;BME280;70412;55.048;73.268;2023-08-07T15:23:30;99370.38;;;16.60;71.13
59168;BME280;70412;55.048;73.268;2023-08-07T15:26:33;99373.34;;;16.65;70.57
59168;BME280;70412;55.048;73.268;2023-08-07T15:29:35;99373.38;;;16.40;70.91
59168;BME280;70412;55.048;73.268;2023-08-07T15:32:38;99386.97;;;16.21;72.62
59168;BME280;70412;55.048;73.268;2023-08-07T15:35:43;99380.16;;;15.94;75.30
59168;BME280;70412;55.048;73.268;2023-08-07T15:38:48;99379.03;;;15.80;74.06
59168;BME280;70412;55.048;73.268;2023-08-07T15:41:50;99385.63;;;15.84;73.97
59168;BME280;70412;55.048;73.268;2023-08-07T15:44:53;99394.53;;;15.67;74.88
59168;BME280;70412;55.048;73.268;2023-08-07T15:47:55;99391.47;;;15.46;77.54
59168;BME280;70412;55.048;73.268;2023-08-07T15:50:58;99396.03;;;15.28;78.42
59168;BME280;70412;55.048;73.268;2023-08-07T15:54:00;99401.63;;;15.16;79.14
59168;BME280;70412;55.048;73.268;2023-08-07T15:57:04;99412.94;;;15.01;81.27
59168;BME280;70412;55.048;73.268;2023-08-07T16:00:10;99406.00;;;15.00;80.25
59168;BME280;70412;55.048;73.268;2023-08-07T16:03:15;99416.06;;;14.96;79.68
59168;BME280;70412;55.048;73.268;2023-08-07T16:06:19;99408.97;;;14.71;83.04